Terminal Aerodrome Forecast
Issued by NWS

Home | Current Version | Previous Version | Text Only | Print | Product List | Glossary On
Versions: 1 2 3 4 5 6 7 8 9 10 11 12 13 14 15 16 17 18 19 20 21 22 23 24 25 26 27 28 29 30
818
FTUS41 KBUF 222035 AAA
TAFJHW
TAF AMD
KJHW 222035Z 2221/2318 VRB05KT P6SM OVC060
     FM230200 11008KT 3SM BR BKN008
     FM231100 10010KT 6SM -RA OVC008
     FM231500 09010KT 4SM RA BR OVC008
      AMD LTD TO VIS AND WIND=

USA.gov is the U.S. government's official web portal to all federal, state and local government web resources and services.